createdAt,value
2022-11-26T00:00:27.730Z,1017.73
2022-11-26T00:01:27.711Z,1017.69
2022-11-26T00:02:27.867Z,1017.76
2022-11-26T00:03:27.798Z,1017.76
2022-11-26T00:04:27.690Z,1017.82
2022-11-26T00:05:27.695Z,1017.73
2022-11-26T00:06:27.662Z,1017.80
2022-11-26T00:07:27.735Z,1017.75
2022-11-26T00:08:27.640Z,1017.70
2022-11-26T00:09:27.622Z,1017.83
2022-11-26T00:10:27.649Z,1017.82
2022-11-26T00:11:27.599Z,1017.74
2022-11-26T00:12:27.588Z,1017.76
2022-11-26T00:13:27.585Z,1017.80
2022-11-26T00:14:27.572Z,1017.81
2022-11-26T00:15:27.588Z,1017.83
2022-11-26T00:16:27.607Z,1017.82
2022-11-26T00:17:27.537Z,1017.87
2022-11-26T00:18:27.526Z,1017.83
2022-11-26T00:19:27.521Z,1017.86
2022-11-26T00:20:27.525Z,1017.87
2022-11-26T00:21:27.497Z,1017.89
2022-11-26T00:22:27.489Z,1017.88
2022-11-26T00:23:27.729Z,1017.91
2022-11-26T00:24:27.463Z,1017.89
2022-11-26T00:25:27.453Z,1017.89
2022-11-26T00:26:27.439Z,1017.88
2022-11-26T00:27:27.433Z,1017.92
2022-11-26T00:28:27.437Z,1017.90
2022-11-26T00:29:27.406Z,1017.96
2022-11-26T00:30:27.399Z,1017.93
2022-11-26T00:31:27.447Z,1017.98
2022-11-26T00:32:27.372Z,1018.01
2022-11-26T00:33:27.376Z,1017.97
2022-11-26T00:34:27.352Z,1017.99
2022-11-26T00:35:27.363Z,1017.98
2022-11-26T00:36:27.346Z,1017.99
2022-11-26T00:37:27.323Z,1018.00
2022-11-26T00:38:27.306Z,1018.01
2022-11-26T00:39:27.342Z,1018.00
2022-11-26T00:40:27.308Z,1018.03
2022-11-26T00:41:27.277Z,1018.09
2022-11-26T00:42:27.270Z,1018.10
2022-11-26T00:43:27.283Z,1018.09
2022-11-26T00:44:27.243Z,1018.09
2022-11-26T00:45:27.238Z,1018.08
2022-11-26T00:46:27.220Z,1018.10
2022-11-26T00:47:27.210Z,1018.13
2022-11-26T00:48:27.202Z,1018.08
2022-11-26T00:49:27.209Z,1018.09
2022-11-26T00:50:27.175Z,1018.11
2022-11-26T00:51:27.163Z,1018.14
2022-11-26T00:52:27.151Z,1018.12
2022-11-26T00:53:27.147Z,1018.14
2022-11-26T00:54:27.167Z,1018.17
2022-11-26T00:55:27.144Z,1018.17
2022-11-26T00:56:27.108Z,1018.17
2022-11-26T00:57:27.106Z,1018.09
2022-11-26T00:58:27.085Z,1018.17
2022-11-26T00:59:27.107Z,1018.21
2022-11-26T01:00:27.069Z,1018.19
2022-11-26T01:01:27.102Z,1018.20
2022-11-26T01:02:27.118Z,1018.17
2022-11-26T01:03:27.058Z,1018.24
2022-11-26T01:04:27.036Z,1018.14
2022-11-26T01:05:27.014Z,1018.17
2022-11-26T01:06:27.010Z,1018.23
2022-11-26T01:07:27.113Z,1018.22
2022-11-26T01:08:26.981Z,1018.22
2022-11-26T01:09:26.997Z,1018.27
2022-11-26T01:10:26.954Z,1018.27
2022-11-26T01:11:26.975Z,1018.29
2022-11-26T01:12:26.936Z,1018.30
2022-11-26T01:13:26.926Z,1018.33
2022-11-26T01:14:26.937Z,1018.32
2022-11-26T01:15:26.924Z,1018.38
2022-11-26T01:16:26.960Z,1018.38
2022-11-26T01:17:26.888Z,1018.38
2022-11-26T01:18:26.874Z,1018.48
2022-11-26T01:19:26.887Z,1018.44
2022-11-26T01:20:26.848Z,1018.42
2022-11-26T01:21:26.860Z,1018.49
2022-11-26T01:22:26.826Z,1018.50
2022-11-26T01:23:26.822Z,1018.50
2022-11-26T01:24:26.835Z,1018.54
2022-11-26T01:25:26.797Z,1018.46
2022-11-26T01:26:26.785Z,1018.52
2022-11-26T01:27:26.794Z,1018.54
2022-11-26T01:28:26.762Z,1018.53
2022-11-26T01:29:26.752Z,1018.57
2022-11-26T01:30:26.779Z,1018.58
2022-11-26T01:31:26.779Z,1018.53
2022-11-26T01:32:29.539Z,1018.58
2022-11-26T01:33:26.713Z,1018.56
2022-11-26T01:34:26.690Z,1018.49
2022-11-26T01:35:26.700Z,1018.54
2022-11-26T01:36:26.705Z,1018.51
2022-11-26T01:37:26.661Z,1018.63
2022-11-26T01:38:26.645Z,1018.66
2022-11-26T01:39:26.642Z,1018.69
2022-11-26T01:40:26.642Z,1018.69
2022-11-26T01:41:26.645Z,1018.64
2022-11-26T01:42:26.611Z,1018.62
2022-11-26T01:43:26.619Z,1018.68
2022-11-26T01:44:26.583Z,1018.64
2022-11-26T01:45:26.678Z,1018.62
2022-11-26T01:46:26.560Z,1018.66
2022-11-26T01:47:26.580Z,1018.64
2022-11-26T01:48:26.541Z,1018.66
2022-11-26T01:49:26.532Z,1018.63
2022-11-26T01:50:26.515Z,1018.66
2022-11-26T01:51:26.515Z,1018.62
2022-11-26T01:52:26.527Z,1018.65
2022-11-26T01:53:26.491Z,1018.63
2022-11-26T01:54:26.471Z,1018.66
2022-11-26T01:55:26.466Z,1018.73
2022-11-26T01:56:26.454Z,1018.65
2022-11-26T01:57:26.462Z,1018.63
2022-11-26T01:58:26.435Z,1018.67
2022-11-26T01:59:26.441Z,1018.61
2022-11-26T02:00:26.406Z,1018.62
2022-11-26T02:01:26.484Z,1018.65
2022-11-26T02:02:26.555Z,1018.72
2022-11-26T02:03:26.385Z,1018.69
2022-11-26T02:04:26.361Z,1018.75
2022-11-26T02:05:26.361Z,1018.79
2022-11-26T02:06:26.348Z,1018.71
2022-11-26T02:07:26.428Z,1018.78
2022-11-26T02:08:26.327Z,1018.77
2022-11-26T02:09:26.323Z,1018.84
2022-11-26T02:10:26.309Z,1018.79
2022-11-26T02:11:26.290Z,1018.84
2022-11-26T02:12:26.293Z,1018.81
2022-11-26T02:13:26.267Z,1018.88
2022-11-26T02:14:26.256Z,1018.88
2022-11-26T02:15:26.269Z,1018.87
2022-11-26T02:16:26.307Z,1018.87
2022-11-26T02:17:26.242Z,1018.92
2022-11-26T02:18:26.225Z,1018.93
2022-11-26T02:19:26.205Z,1018.92
2022-11-26T02:20:26.192Z,1018.89
2022-11-26T02:21:26.189Z,1018.92
2022-11-26T02:22:26.165Z,1018.92
2022-11-26T02:23:26.184Z,1018.90
2022-11-26T02:24:26.153Z,1018.97
2022-11-26T02:25:26.151Z,1018.98
2022-11-26T02:26:26.131Z,1019.01
2022-11-26T02:27:26.120Z,1019.04
2022-11-26T02:28:26.135Z,1019.00
2022-11-26T02:29:26.098Z,1019.05
2022-11-26T02:30:26.090Z,1019.12
2022-11-26T02:31:26.193Z,1019.11
2022-11-26T02:32:26.058Z,1019.14
2022-11-26T02:33:26.068Z,1019.12
2022-11-26T02:34:26.042Z,1019.13
2022-11-26T02:35:26.027Z,1019.08
2022-11-26T02:36:26.020Z,1019.10
2022-11-26T02:37:26.005Z,1019.16
2022-11-26T02:38:26.016Z,1019.15
2022-11-26T02:39:26.013Z,1019.17
2022-11-26T02:40:25.970Z,1019.16
2022-11-26T02:41:25.965Z,1019.15
2022-11-26T02:42:25.948Z,1019.07
2022-11-26T02:43:25.945Z,1019.12
2022-11-26T02:44:25.957Z,1019.13
2022-11-26T02:45:25.967Z,1019.11
2022-11-26T02:46:26.015Z,1019.14
2022-11-26T02:47:25.917Z,1019.19
2022-11-26T02:48:25.893Z,1019.14
2022-11-26T02:49:25.899Z,1019.17
2022-11-26T02:50:25.860Z,1019.20
2022-11-26T02:51:29.494Z,1019.21
2022-11-26T02:52:26.841Z,1019.16
2022-11-26T02:53:25.837Z,1019.19
2022-11-26T02:54:25.842Z,1019.25
2022-11-26T02:55:25.810Z,1019.23
2022-11-26T02:56:25.799Z,1019.23
2022-11-26T02:57:25.792Z,1019.22
2022-11-26T02:58:25.772Z,1019.16
2022-11-26T02:59:25.793Z,1019.16
2022-11-26T03:00:25.759Z,1019.13
2022-11-26T03:01:25.808Z,1019.15
2022-11-26T03:02:25.736Z,1019.12
2022-11-26T03:03:25.745Z,1019.17
2022-11-26T03:04:25.892Z,1019.13
2022-11-26T03:05:25.705Z,1019.12
2022-11-26T03:06:25.691Z,1019.12
2022-11-26T03:07:25.733Z,1019.16
2022-11-26T03:08:25.671Z,1019.16
2022-11-26T03:09:25.674Z,1019.18
2022-11-26T03:10:25.655Z,1019.15
2022-11-26T03:11:25.675Z,1019.22
2022-11-26T03:12:25.624Z,1019.20
2022-11-26T03:13:25.620Z,1019.20
2022-11-26T03:14:25.632Z,1019.24
2022-11-26T03:15:25.595Z,1019.25
2022-11-26T03:16:25.638Z,1019.23
2022-11-26T03:17:25.570Z,1019.21
2022-11-26T03:18:25.557Z,1019.26
2022-11-26T03:19:25.595Z,1019.27
2022-11-26T03:20:25.530Z,1019.27
2022-11-26T03:21:25.532Z,1019.31
2022-11-26T03:22:25.512Z,1019.34
2022-11-26T03:23:25.508Z,1019.32
2022-11-26T03:24:25.519Z,1019.37
2022-11-26T03:25:25.507Z,1019.28
2022-11-26T03:26:25.473Z,1019.31
2022-11-26T03:27:25.462Z,1019.31
2022-11-26T03:28:25.448Z,1019.39
2022-11-26T03:29:25.444Z,1019.36
2022-11-26T03:30:25.459Z,1019.39
2022-11-26T03:31:25.501Z,1019.34
2022-11-26T03:32:25.410Z,1019.36
2022-11-26T03:33:25.396Z,1019.43
2022-11-26T03:34:25.379Z,1019.38
2022-11-26T03:35:25.416Z,1019.45
2022-11-26T03:36:25.364Z,1019.43
2022-11-26T03:37:25.351Z,1019.48
2022-11-26T03:38:25.343Z,1019.45
2022-11-26T03:39:25.335Z,1019.43
2022-11-26T03:40:25.365Z,1019.47
2022-11-26T03:41:25.306Z,1019.50
2022-11-26T03:42:25.293Z,1019.51
2022-11-26T03:43:25.289Z,1019.49
2022-11-26T03:44:25.276Z,1019.52
2022-11-26T03:45:25.290Z,1019.55
2022-11-26T03:46:25.249Z,1019.53
2022-11-26T03:47:25.243Z,1019.52
2022-11-26T03:48:25.234Z,1019.56
2022-11-26T03:49:25.224Z,1019.61
2022-11-26T03:50:25.229Z,1019.61
2022-11-26T03:51:25.221Z,1019.65
2022-11-26T03:52:25.185Z,1019.67
2022-11-26T03:53:25.183Z,1019.65
2022-11-26T03:54:25.167Z,1019.74
2022-11-26T03:55:25.181Z,1019.67
2022-11-26T03:56:25.143Z,1019.65
2022-11-26T03:57:25.144Z,1019.72
2022-11-26T03:58:25.125Z,1019.74
2022-11-26T03:59:25.110Z,1019.72
2022-11-26T04:00:25.129Z,1019.71
2022-11-26T04:01:25.158Z,1019.68
2022-11-26T04:02:25.075Z,1019.70
2022-11-26T04:03:25.135Z,1019.65
2022-11-26T04:04:25.051Z,1019.69
2022-11-26T04:05:25.070Z,1019.72
2022-11-26T04:06:25.030Z,1019.72
2022-11-26T04:07:25.122Z,1019.69
2022-11-26T04:08:25.042Z,1019.75
2022-11-26T04:09:25.007Z,1019.71
2022-11-26T04:10:24.990Z,1019.67
2022-11-26T04:11:24.983Z,1019.74
2022-11-26T04:12:24.967Z,1019.74
2022-11-26T04:13:24.954Z,1019.72
2022-11-26T04:14:24.975Z,1019.78
2022-11-26T04:15:24.934Z,1019.81
2022-11-26T04:16:25.006Z,1019.85
2022-11-26T04:17:24.923Z,1019.85
2022-11-26T04:18:24.899Z,1019.86
2022-11-26T04:19:24.913Z,1019.87
2022-11-26T04:20:24.878Z,1019.87
2022-11-26T04:21:24.870Z,1019.92
2022-11-26T04:22:24.863Z,1019.92
2022-11-26T04:23:24.867Z,1019.90
2022-11-26T04:24:24.861Z,1019.96
2022-11-26T04:25:24.829Z,1019.99
2022-11-26T04:26:24.807Z,1019.99
2022-11-26T04:27:24.807Z,1019.99
2022-11-26T04:28:24.793Z,1020.09
2022-11-26T04:29:24.800Z,1019.96
2022-11-26T04:30:24.780Z,1020.04
2022-11-26T04:31:24.822Z,1020.04
2022-11-26T04:32:24.750Z,1020.10
2022-11-26T04:33:24.738Z,1020.08
2022-11-26T04:34:24.747Z,1020.10
2022-11-26T04:35:24.713Z,1020.10
2022-11-26T04:36:24.710Z,1020.13
2022-11-26T04:37:24.693Z,1020.13
2022-11-26T04:38:26.121Z,1020.11
2022-11-26T04:39:24.721Z,1020.10
2022-11-26T04:40:24.661Z,1020.11
2022-11-26T04:41:24.646Z,1020.16
2022-11-26T04:42:24.641Z,1020.17
2022-11-26T04:43:24.626Z,1020.21
2022-11-26T04:44:24.640Z,1020.28
2022-11-26T04:45:24.704Z,1020.26
2022-11-26T04:46:24.600Z,1020.23
2022-11-26T04:47:24.580Z,1020.27
2022-11-26T04:48:24.574Z,1020.28
2022-11-26T04:49:24.578Z,1020.29
2022-11-26T04:50:24.562Z,1020.23
2022-11-26T04:51:24.542Z,1020.30
2022-11-26T04:52:24.526Z,1020.33
2022-11-26T04:53:24.513Z,1020.32
2022-11-26T04:54:24.524Z,1020.34
2022-11-26T04:55:24.517Z,1020.34
2022-11-26T04:56:24.486Z,1020.33
2022-11-26T04:57:24.468Z,1020.36
2022-11-26T04:58:24.468Z,1020.38
2022-11-26T04:59:24.469Z,1020.41
2022-11-26T05:00:24.441Z,1020.36
2022-11-26T05:01:24.479Z,1020.39
2022-11-26T05:02:24.502Z,1020.50
2022-11-26T05:03:24.402Z,1020.51
2022-11-26T05:04:24.411Z,1020.44
2022-11-26T05:05:24.411Z,1020.48
2022-11-26T05:06:24.379Z,1020.45
2022-11-26T05:07:24.401Z,1020.49
2022-11-26T05:08:24.355Z,1020.53
2022-11-26T05:09:24.346Z,1020.58
2022-11-26T05:10:24.355Z,1020.55
2022-11-26T05:11:24.340Z,1020.59
2022-11-26T05:12:24.310Z,1020.58
2022-11-26T05:13:24.294Z,1020.58
2022-11-26T05:14:24.285Z,1020.62
2022-11-26T05:15:24.295Z,1020.60
2022-11-26T05:16:24.325Z,1020.61
2022-11-26T05:17:24.248Z,1020.59
2022-11-26T05:18:24.245Z,1020.58
2022-11-26T05:19:24.254Z,1020.57
2022-11-26T05:20:24.255Z,1020.54
2022-11-26T05:21:24.236Z,1020.53
2022-11-26T05:22:24.203Z,1020.53
2022-11-26T05:23:24.187Z,1020.56
2022-11-26T05:24:24.174Z,1020.71
2022-11-26T05:25:24.171Z,1020.66
2022-11-26T05:26:24.181Z,1020.65
2022-11-26T05:27:24.193Z,1020.68
2022-11-26T05:28:24.132Z,1020.82
2022-11-26T05:29:24.124Z,1020.79
2022-11-26T05:30:24.112Z,1020.80
2022-11-26T05:31:24.165Z,1020.77
2022-11-26T05:32:24.091Z,1020.78
2022-11-26T05:33:24.099Z,1020.98
2022-11-26T05:34:24.073Z,1020.84
2022-11-26T05:35:24.053Z,1020.87
2022-11-26T05:36:24.045Z,1020.96
2022-11-26T05:37:24.034Z,1020.93
2022-11-26T05:38:24.060Z,1020.95
2022-11-26T05:39:24.008Z,1020.98
2022-11-26T05:40:23.999Z,1020.99
2022-11-26T05:41:23.991Z,1021.02
2022-11-26T05:42:23.982Z,1020.98
2022-11-26T05:43:24.008Z,1021.07
2022-11-26T05:44:23.954Z,1021.04
2022-11-26T05:45:24.044Z,1021.03
2022-11-26T05:46:23.933Z,1021.10
2022-11-26T05:47:23.935Z,1021.08
2022-11-26T05:48:23.935Z,1021.09
2022-11-26T05:49:23.896Z,1021.09
2022-11-26T05:50:23.887Z,1021.13
2022-11-26T05:51:23.875Z,1021.10
2022-11-26T05:52:23.901Z,1021.11
2022-11-26T05:53:23.853Z,1021.13
2022-11-26T05:54:23.848Z,1021.07
2022-11-26T05:55:23.828Z,1021.12
2022-11-26T05:56:23.821Z,1021.05
2022-11-26T05:57:23.811Z,1021.11
2022-11-26T05:58:23.822Z,1021.11
2022-11-26T05:59:23.804Z,1021.17
2022-11-26T06:00:23.781Z,1021.11
2022-11-26T06:01:23.765Z,1021.16
2022-11-26T06:02:23.993Z,1021.16
2022-11-26T06:03:23.972Z,1021.16
2022-11-26T06:04:23.737Z,1021.17
2022-11-26T06:05:23.722Z,1021.18
2022-11-26T06:06:23.719Z,1021.21
2022-11-26T06:07:23.740Z,1021.23
2022-11-26T06:08:23.713Z,1021.28
2022-11-26T06:09:23.678Z,1021.24
2022-11-26T06:10:23.668Z,1021.22
2022-11-26T06:11:23.657Z,1021.32
2022-11-26T06:12:23.671Z,1021.31
2022-11-26T06:13:23.637Z,1021.36
2022-11-26T06:14:23.628Z,1021.35
2022-11-26T06:15:23.633Z,1021.43
2022-11-26T06:16:23.703Z,1021.39
2022-11-26T06:17:23.602Z,1021.42
2022-11-26T06:18:23.581Z,1021.48
2022-11-26T06:19:23.564Z,1021.48
2022-11-26T06:20:23.558Z,1021.49
2022-11-26T06:21:23.543Z,1021.47
2022-11-26T06:22:23.559Z,1021.44
2022-11-26T06:23:23.526Z,1021.48
2022-11-26T06:24:23.515Z,1021.48
2022-11-26T06:25:23.501Z,1021.52
2022-11-26T06:26:23.506Z,1021.57
2022-11-26T06:27:23.474Z,1021.58
2022-11-26T06:28:23.493Z,1021.58
2022-11-26T06:29:27.772Z,1021.59
2022-11-26T06:30:23.449Z,1021.68
2022-11-26T06:31:23.538Z,1021.75
2022-11-26T06:32:23.430Z,1021.69
2022-11-26T06:33:23.430Z,1021.77
2022-11-26T06:34:23.406Z,1021.71
2022-11-26T06:35:23.386Z,1021.75
2022-11-26T06:36:23.384Z,1021.71
2022-11-26T06:37:23.367Z,1021.81
2022-11-26T06:38:23.383Z,1021.81
2022-11-26T06:39:23.344Z,1021.82
2022-11-26T06:40:23.336Z,1021.78
2022-11-26T06:41:23.328Z,1021.86
2022-11-26T06:42:23.320Z,1021.75
2022-11-26T06:43:23.320Z,1021.84
2022-11-26T06:44:23.294Z,1021.82
2022-11-26T06:45:23.470Z,1021.87
2022-11-26T06:46:23.352Z,1021.81
2022-11-26T06:47:23.282Z,1021.87
2022-11-26T06:48:23.292Z,1021.84
2022-11-26T06:49:23.238Z,1021.88
2022-11-26T06:50:23.235Z,1021.93
2022-11-26T06:51:23.216Z,1021.87
2022-11-26T06:52:23.208Z,1021.90
2022-11-26T06:53:23.208Z,1021.98
2022-11-26T06:54:23.186Z,1021.96
2022-11-26T06:55:23.179Z,1021.92
2022-11-26T06:56:23.168Z,1021.97
2022-11-26T06:57:23.166Z,1021.97
2022-11-26T06:58:23.141Z,1021.91
2022-11-26T06:59:23.148Z,1022.00
2022-11-26T07:00:23.121Z,1022.05
2022-11-26T07:01:23.154Z,1022.01
2022-11-26T07:02:23.154Z,1022.03
2022-11-26T07:03:24.928Z,1022.03
2022-11-26T07:04:23.099Z,1022.07
2022-11-26T07:05:23.060Z,1022.14
2022-11-26T07:06:23.078Z,1022.10
2022-11-26T07:07:23.098Z,1022.16
2022-11-26T07:08:23.030Z,1022.11
2022-11-26T07:09:23.016Z,1022.17
2022-11-26T07:10:23.036Z,1022.12
2022-11-26T07:11:23.000Z,1022.14
2022-11-26T07:12:22.985Z,1022.20
2022-11-26T07:13:22.973Z,1022.24
2022-11-26T07:14:22.969Z,1022.19
2022-11-26T07:15:22.969Z,1022.23
2022-11-26T07:16:23.028Z,1022.26
2022-11-26T07:17:22.925Z,1022.24
2022-11-26T07:18:22.946Z,1022.27
2022-11-26T07:19:22.933Z,1022.34
2022-11-26T07:20:22.923Z,1022.36
2022-11-26T07:21:22.886Z,1022.32
2022-11-26T07:22:22.877Z,1022.34
2022-11-26T07:23:22.859Z,1022.31
2022-11-26T07:24:22.855Z,1022.39
2022-11-26T07:25:22.863Z,1022.37
2022-11-26T07:26:22.839Z,1022.39
2022-11-26T07:27:22.819Z,1022.38
2022-11-26T07:28:22.811Z,1022.38
2022-11-26T07:29:22.792Z,1022.38
2022-11-26T07:30:22.810Z,1022.40
2022-11-26T07:31:22.876Z,1022.40
2022-11-26T07:32:22.765Z,1022.37
2022-11-26T07:33:22.753Z,1022.33
2022-11-26T07:34:22.744Z,1022.38
2022-11-26T07:35:22.765Z,1022.41
2022-11-26T07:36:22.722Z,1022.39
2022-11-26T07:37:22.708Z,1022.41
2022-11-26T07:38:22.700Z,1022.41
2022-11-26T07:39:22.687Z,1022.42
2022-11-26T07:40:22.708Z,1022.34
2022-11-26T07:41:22.660Z,1022.42
2022-11-26T07:42:22.649Z,1022.43
2022-11-26T07:43:22.642Z,1022.44
2022-11-26T07:44:22.633Z,1022.46
2022-11-26T07:45:22.654Z,1022.46
2022-11-26T07:46:22.782Z,1022.54
2022-11-26T07:47:22.597Z,1022.53
2022-11-26T07:48:22.591Z,1022.53
2022-11-26T07:49:22.574Z,1022.53
2022-11-26T07:50:22.573Z,1022.46
2022-11-26T07:51:22.598Z,1022.53
2022-11-26T07:52:22.548Z,1022.50
2022-11-26T07:53:22.531Z,1022.56
2022-11-26T07:54:22.522Z,1022.56
2022-11-26T07:55:22.506Z,1022.54
2022-11-26T07:56:22.525Z,1022.56
2022-11-26T07:57:22.487Z,1022.57
2022-11-26T07:58:22.481Z,1022.57
2022-11-26T07:59:22.461Z,1022.56
2022-11-26T08:00:22.457Z,1022.59
2022-11-26T08:01:22.537Z,1022.64
2022-11-26T08:02:22.485Z,1022.59
2022-11-26T08:03:22.422Z,1022.66
2022-11-26T08:04:22.413Z,1022.68
2022-11-26T08:05:22.397Z,1022.69
2022-11-26T08:06:22.416Z,1022.74
2022-11-26T08:07:27.656Z,1022.70
2022-11-26T08:08:23.389Z,1022.78
2022-11-26T08:09:22.355Z,1022.72
2022-11-26T08:10:22.346Z,1022.70
2022-11-26T08:11:22.332Z,1022.72
2022-11-26T08:12:22.326Z,1022.72
2022-11-26T08:13:22.329Z,1022.81
2022-11-26T08:14:22.303Z,1022.80
2022-11-26T08:15:22.294Z,1022.75
2022-11-26T08:16:22.346Z,1022.76
2022-11-26T08:17:22.289Z,1022.79
2022-11-26T08:18:22.260Z,1022.82
2022-11-26T08:19:22.243Z,1022.85
2022-11-26T08:20:25.882Z,1022.88
2022-11-26T08:21:23.222Z,1022.92
2022-11-26T08:22:22.244Z,1022.95
2022-11-26T08:23:22.222Z,1022.99
2022-11-26T08:24:22.195Z,1022.93
2022-11-26T08:25:22.181Z,1022.99
2022-11-26T08:26:27.423Z,1023.01
2022-11-26T08:27:23.179Z,1022.98
2022-11-26T08:28:22.150Z,1023.03
2022-11-26T08:29:22.135Z,1023.05
2022-11-26T08:30:22.131Z,1023.04
2022-11-26T08:31:22.187Z,1023.00
2022-11-26T08:32:22.136Z,1023.01
2022-11-26T08:33:22.088Z,1023.02
2022-11-26T08:34:22.081Z,1023.03
2022-11-26T08:35:30.609Z,1023.00
2022-11-26T08:36:23.060Z,1023.05
2022-11-26T08:37:22.048Z,1023.10
2022-11-26T08:38:22.059Z,1023.00
2022-11-26T08:39:22.046Z,1023.09
2022-11-26T08:40:22.030Z,1023.08
2022-11-26T08:41:22.014Z,1023.07
2022-11-26T08:42:22.010Z,1023.12
2022-11-26T08:43:27.673Z,1023.11
2022-11-26T08:44:22.966Z,1023.12
2022-11-26T08:45:21.963Z,1023.06
2022-11-26T08:46:22.005Z,1023.09
2022-11-26T08:47:21.941Z,1023.10
2022-11-26T08:48:21.943Z,1023.14
2022-11-26T08:49:21.917Z,1023.15
2022-11-26T08:50:21.908Z,1023.13
2022-11-26T08:51:21.897Z,1023.17
2022-11-26T08:52:21.908Z,1023.13
2022-11-26T08:53:21.896Z,1023.21
2022-11-26T08:54:21.859Z,1023.23
2022-11-26T08:55:24.008Z,1023.25
2022-11-26T08:56:22.841Z,1023.27
2022-11-26T08:57:21.833Z,1023.25
2022-11-26T08:58:21.842Z,1023.24
2022-11-26T08:59:21.814Z,1023.23
2022-11-26T09:00:21.795Z,1023.28
2022-11-26T09:01:21.939Z,1023.32
2022-11-26T09:02:21.792Z,1023.33
2022-11-26T09:03:21.841Z,1023.31
2022-11-26T09:04:21.769Z,1023.30
2022-11-26T09:05:21.750Z,1023.33
2022-11-26T09:06:21.733Z,1023.39
2022-11-26T09:07:21.816Z,1023.38
2022-11-26T09:08:21.741Z,1023.41
2022-11-26T09:09:21.725Z,1023.40
2022-11-26T09:10:21.687Z,1023.46
2022-11-26T09:11:21.697Z,1023.45
2022-11-26T09:12:21.663Z,1023.46
2022-11-26T09:13:21.660Z,1023.51
2022-11-26T09:14:21.668Z,1023.49
2022-11-26T09:15:21.700Z,1023.48
2022-11-26T09:16:21.643Z,1023.43
2022-11-26T09:17:21.612Z,1023.46
2022-11-26T09:18:21.595Z,1023.48
2022-11-26T09:19:21.611Z,1023.49
2022-11-26T09:20:21.581Z,1023.51
2022-11-26T09:21:21.572Z,1023.48
2022-11-26T09:22:21.577Z,1023.54
2022-11-26T09:23:21.547Z,1023.57
2022-11-26T09:24:21.540Z,1023.48
2022-11-26T09:25:21.529Z,1023.50
2022-11-26T09:26:21.513Z,1023.58
2022-11-26T09:27:21.554Z,1023.53
2022-11-26T09:28:21.494Z,1023.56
2022-11-26T09:29:21.481Z,1023.57
2022-11-26T09:30:21.464Z,1023.64
2022-11-26T09:31:21.554Z,1023.63
2022-11-26T09:32:25.297Z,1023.63
2022-11-26T09:33:22.436Z,1023.58
2022-11-26T09:34:21.442Z,1023.66
2022-11-26T09:35:21.418Z,1023.68
2022-11-26T09:36:21.402Z,1023.70
2022-11-26T09:37:21.419Z,1023.73
2022-11-26T09:38:21.385Z,1023.67
2022-11-26T09:39:21.401Z,1023.76
2022-11-26T09:40:21.383Z,1023.76
2022-11-26T09:41:21.352Z,1023.74
2022-11-26T09:42:21.337Z,1023.79
2022-11-26T09:43:21.353Z,1023.76
2022-11-26T09:44:21.341Z,1023.78
2022-11-26T09:45:21.308Z,1023.81
2022-11-26T09:46:21.296Z,1023.89
2022-11-26T09:47:21.285Z,1023.87
2022-11-26T09:48:21.290Z,1023.88
2022-11-26T09:49:21.265Z,1023.81
2022-11-26T09:50:21.252Z,1023.89
2022-11-26T09:51:21.242Z,1023.89
2022-11-26T09:52:21.244Z,1023.90
2022-11-26T09:53:21.241Z,1023.90
2022-11-26T09:54:21.210Z,1023.92
2022-11-26T09:55:21.201Z,1023.90
2022-11-26T09:56:21.183Z,1023.95
2022-11-26T09:57:21.181Z,1023.94
2022-11-26T09:58:26.567Z,1023.93
2022-11-26T09:59:22.170Z,1023.93
2022-11-26T10:00:21.198Z,1023.97
2022-11-26T10:01:21.253Z,1023.95
2022-11-26T10:02:21.193Z,1023.96
2022-11-26T10:03:21.111Z,1023.98
2022-11-26T10:04:21.096Z,1023.99
2022-11-26T10:05:21.603Z,1023.94
2022-11-26T10:06:21.074Z,1024.01
2022-11-26T10:07:21.151Z,1023.99
2022-11-26T10:08:21.054Z,1024.07
2022-11-26T10:09:21.047Z,1024.11
2022-11-26T10:10:21.158Z,1024.06
2022-11-26T10:11:21.050Z,1024.10
2022-11-26T10:12:25.809Z,1024.08
2022-11-26T10:13:22.003Z,1024.08
2022-11-26T10:14:20.992Z,1024.07
2022-11-26T10:15:20.999Z,1024.06
2022-11-26T10:16:21.026Z,1024.08
2022-11-26T10:17:20.980Z,1024.08
2022-11-26T10:18:20.942Z,1024.09
2022-11-26T10:19:20.939Z,1024.06
2022-11-26T10:20:20.984Z,1024.00
2022-11-26T10:21:32.592Z,1024.06
2022-11-26T10:22:21.921Z,1024.13
2022-11-26T10:23:20.892Z,1024.05
2022-11-26T10:24:20.902Z,1024.08
2022-11-26T10:25:20.871Z,1024.09
2022-11-26T10:26:20.853Z,1024.12
2022-11-26T10:27:20.851Z,1024.16
2022-11-26T10:28:20.832Z,1024.10
2022-11-26T10:29:20.845Z,1024.12
2022-11-26T10:30:20.908Z,1024.17
2022-11-26T10:31:20.915Z,1024.07
2022-11-26T10:32:20.809Z,1024.06
2022-11-26T10:33:20.778Z,1024.15
2022-11-26T10:34:20.789Z,1024.11
2022-11-26T10:35:20.755Z,1024.14
2022-11-26T10:36:20.759Z,1024.14
2022-11-26T10:37:20.766Z,1024.19
2022-11-26T10:38:20.731Z,1024.18
2022-11-26T10:39:20.737Z,1024.23
2022-11-26T10:40:20.705Z,1024.20
2022-11-26T10:41:20.703Z,1024.23
2022-11-26T10:42:20.678Z,1024.20
2022-11-26T10:43:20.670Z,1024.20
2022-11-26T10:44:20.681Z,1024.18
2022-11-26T10:45:20.656Z,1024.29
2022-11-26T10:46:20.701Z,1024.27
2022-11-26T10:47:20.649Z,1024.30
2022-11-26T10:48:20.614Z,1024.32
2022-11-26T10:49:20.604Z,1024.35
2022-11-26T10:50:46.040Z,1024.33
2022-11-26T10:51:26.331Z,1024.36
2022-11-26T10:52:21.565Z,1024.37
2022-11-26T10:53:20.559Z,1024.36
2022-11-26T10:54:20.543Z,1024.35
2022-11-26T10:55:20.565Z,1024.40
2022-11-26T10:56:20.527Z,1024.44
2022-11-26T10:57:20.518Z,1024.44
2022-11-26T10:58:20.510Z,1024.40
2022-11-26T10:59:20.498Z,1024.43
2022-11-26T11:00:20.511Z,1024.47
2022-11-26T11:01:20.635Z,1024.46
2022-11-26T11:02:20.555Z,1024.45
2022-11-26T11:03:33.164Z,1024.44
2022-11-26T11:04:21.432Z,1024.46
2022-11-26T11:05:20.430Z,1024.47
2022-11-26T11:06:20.437Z,1024.56
2022-11-26T11:07:20.432Z,1024.45
2022-11-26T11:08:20.390Z,1024.52
2022-11-26T11:09:20.415Z,1024.50
2022-11-26T11:10:20.377Z,1024.45
2022-11-26T11:11:20.383Z,1024.44
2022-11-26T11:12:20.360Z,1024.48
2022-11-26T11:13:20.343Z,1024.44
2022-11-26T11:14:20.326Z,1024.42
2022-11-26T11:15:20.343Z,1024.48
2022-11-26T11:16:20.377Z,1024.51
2022-11-26T11:17:20.301Z,1024.53
2022-11-26T11:18:20.358Z,1024.54
2022-11-26T11:19:20.294Z,1024.49
2022-11-26T11:20:20.262Z,1024.51
2022-11-26T11:21:20.273Z,1024.53
2022-11-26T11:22:20.258Z,1024.52
2022-11-26T11:23:20.237Z,1024.46
2022-11-26T11:24:20.213Z,1024.58
2022-11-26T11:25:20.210Z,1024.54
2022-11-26T11:26:20.194Z,1024.58
2022-11-26T11:27:20.213Z,1024.56
2022-11-26T11:28:20.172Z,1024.60
2022-11-26T11:29:20.168Z,1024.62
2022-11-26T11:30:20.148Z,1024.59
2022-11-26T11:31:20.250Z,1024.56
2022-11-26T11:32:20.149Z,1024.67
2022-11-26T11:33:20.124Z,1024.60
2022-11-26T11:34:20.105Z,1024.64
2022-11-26T11:35:20.137Z,1024.64
2022-11-26T11:36:20.088Z,1024.57
2022-11-26T11:37:20.087Z,1024.59
2022-11-26T11:38:20.065Z,1024.60
2022-11-26T11:39:20.056Z,1024.60
2022-11-26T11:40:20.068Z,1024.56
2022-11-26T11:41:20.039Z,1024.60
2022-11-26T11:42:20.018Z,1024.62
2022-11-26T11:43:20.017Z,1024.64
2022-11-26T11:44:19.996Z,1024.62
2022-11-26T11:45:20.016Z,1024.61
2022-11-26T11:46:20.050Z,1024.59
2022-11-26T11:47:19.973Z,1024.64
2022-11-26T11:48:19.964Z,1024.62
2022-11-26T11:49:19.947Z,1024.70
2022-11-26T11:50:19.943Z,1024.64
2022-11-26T11:51:19.962Z,1024.64
2022-11-26T11:52:19.936Z,1024.72
2022-11-26T11:53:19.901Z,1024.64
2022-11-26T11:54:19.896Z,1024.68
2022-11-26T11:55:19.885Z,1024.66
2022-11-26T11:56:19.888Z,1024.69
2022-11-26T11:57:19.881Z,1024.67
2022-11-26T11:58:19.843Z,1024.68
2022-11-26T11:59:19.839Z,1024.68
2022-11-26T12:00:19.828Z,1024.65
2022-11-26T12:01:19.816Z,1024.68
2022-11-26T12:02:19.913Z,1024.71
2022-11-26T12:03:19.787Z,1024.72
2022-11-26T12:04:20.172Z,1024.73
2022-11-26T12:05:19.779Z,1024.75